sensor_id;sensor_type;location;lat;lon;timestamp;temperature;humidity
18906;DHT22;9585;51.018;4.282;2022-11-20T00:00:25;2.70;99.90
18906;DHT22;9585;51.018;4.282;2022-11-20T00:02:54;2.80;99.90
18906;DHT22;9585;51.018;4.282;2022-11-20T00:05:22;2.80;99.90
18906;DHT22;9585;51.018;4.282;2022-11-20T00:07:49;2.80;99.90
18906;DHT22;9585;51.018;4.282;2022-11-20T00:10:17;2.90;99.90
18906;DHT22;9585;51.018;4.282;2022-11-20T00:12:44;3.00;99.90
18906;DHT22;9585;51.018;4.282;2022-11-20T00:15:11;3.00;99.90
18906;DHT22;9585;51.018;4.282;2022-11-20T00:17:38;3.00;99.90
18906;DHT22;9585;51.018;4.282;2022-11-20T00:20:08;3.00;99.90
18906;DHT22;9585;51.018;4.282;2022-11-20T00:22:36;3.00;99.90
18906;DHT22;9585;51.018;4.282;2022-11-20T00:25:04;3.00;99.90
18906;DHT22;9585;51.018;4.282;2022-11-20T00:27:31;3.00;99.90
18906;DHT22;9585;51.018;4.282;2022-11-20T00:29:59;3.10;99.90
18906;DHT22;9585;51.018;4.282;2022-11-20T00:32:26;3.00;99.90
18906;DHT22;9585;51.018;4.282;2022-11-20T00:34:53;3.00;99.90
18906;DHT22;9585;51.018;4.282;2022-11-20T00:37:22;3.00;99.90
18906;DHT22;9585;51.018;4.282;2022-11-20T00:39:49;3.00;99.90
18906;DHT22;9585;51.018;4.282;2022-11-20T00:42:17;3.00;99.90
18906;DHT22;9585;51.018;4.282;2022-11-20T00:44:44;3.00;99.90
18906;DHT22;9585;51.018;4.282;2022-11-20T00:47:12;3.00;99.90
18906;DHT22;9585;51.018;4.282;2022-11-20T00:49:39;3.00;99.90
18906;DHT22;9585;51.018;4.282;2022-11-20T00:52:06;3.00;99.90
18906;DHT22;9585;51.018;4.282;2022-11-20T00:54:35;3.00;99.90
18906;DHT22;9585;51.018;4.282;2022-11-20T00:57:02;2.90;99.90
18906;DHT22;9585;51.018;4.282;2022-11-20T00:59:30;2.90;99.90
18906;DHT22;9585;51.018;4.282;2022-11-20T01:01:57;2.90;99.90
18906;DHT22;9585;51.018;4.282;2022-11-20T01:04:25;2.90;99.90
18906;DHT22;9585;51.018;4.282;2022-11-20T01:06:52;2.90;99.90
18906;DHT22;9585;51.018;4.282;2022-11-20T01:09:19;2.90;99.90
18906;DHT22;9585;51.018;4.282;2022-11-20T01:11:48;2.90;99.90
18906;DHT22;9585;51.018;4.282;2022-11-20T01:14:18;2.90;99.90
18906;DHT22;9585;51.018;4.282;2022-11-20T01:16:47;3.00;99.90
18906;DHT22;9585;51.018;4.282;2022-11-20T01:19:16;3.00;99.90
18906;DHT22;9585;51.018;4.282;2022-11-20T01:21:45;3.00;99.90
18906;DHT22;9585;51.018;4.282;2022-11-20T01:24:14;3.00;99.90
18906;DHT22;9585;51.018;4.282;2022-11-20T01:26:43;3.00;99.90
18906;DHT22;9585;51.018;4.282;2022-11-20T01:29:14;3.00;99.90
18906;DHT22;9585;51.018;4.282;2022-11-20T01:31:43;3.00;99.90
18906;DHT22;9585;51.018;4.282;2022-11-20T01:34:11;3.00;99.90
18906;DHT22;9585;51.018;4.282;2022-11-20T01:36:40;3.10;99.90
18906;DHT22;9585;51.018;4.282;2022-11-20T01:39:12;3.10;99.90
18906;DHT22;9585;51.018;4.282;2022-11-20T01:41:40;3.10;99.90
18906;DHT22;9585;51.018;4.282;2022-11-20T01:47:27;3.00;99.90
18906;DHT22;9585;51.018;4.282;2022-11-20T01:50:00;3.00;99.90
18906;DHT22;9585;51.018;4.282;2022-11-20T01:52:34;2.90;99.90
18906;DHT22;9585;51.018;4.282;2022-11-20T01:55:04;3.00;99.90
18906;DHT22;9585;51.018;4.282;2022-11-20T01:57:34;2.90;99.90
18906;DHT22;9585;51.018;4.282;2022-11-20T02:00:06;2.90;99.90
18906;DHT22;9585;51.018;4.282;2022-11-20T02:02:36;3.00;99.90
18906;DHT22;9585;51.018;4.282;2022-11-20T02:05:12;2.90;99.90
18906;DHT22;9585;51.018;4.282;2022-11-20T02:07:42;3.00;99.90
18906;DHT22;9585;51.018;4.282;2022-11-20T02:10:10;2.90;99.90
18906;DHT22;9585;51.018;4.282;2022-11-20T02:12:38;2.90;99.90
18906;DHT22;9585;51.018;4.282;2022-11-20T02:15:22;2.90;99.90
18906;DHT22;9585;51.018;4.282;2022-11-20T02:17:51;2.90;99.90
18906;DHT22;9585;51.018;4.282;2022-11-20T02:20:18;2.90;99.90
18906;DHT22;9585;51.018;4.282;2022-11-20T02:22:50;2.90;99.90
18906;DHT22;9585;51.018;4.282;2022-11-20T02:25:23;3.00;99.90
18906;DHT22;9585;51.018;4.282;2022-11-20T02:27:51;3.00;99.90
18906;DHT22;9585;51.018;4.282;2022-11-20T02:30:18;2.90;99.90
18906;DHT22;9585;51.018;4.282;2022-11-20T02:32:45;2.90;99.90
18906;DHT22;9585;51.018;4.282;2022-11-20T02:35:43;2.90;99.90
18906;DHT22;9585;51.018;4.282;2022-11-20T02:38:10;3.00;99.90
18906;DHT22;9585;51.018;4.282;2022-11-20T02:40:40;2.90;99.90
18906;DHT22;9585;51.018;4.282;2022-11-20T02:43:07;3.00;99.90
18906;DHT22;9585;51.018;4.282;2022-11-20T02:45:35;3.00;99.90
18906;DHT22;9585;51.018;4.282;2022-11-20T02:48:02;3.00;99.90
18906;DHT22;9585;51.018;4.282;2022-11-20T02:50:30;3.00;99.90
18906;DHT22;9585;51.018;4.282;2022-11-20T02:52:57;3.00;99.90
18906;DHT22;9585;51.018;4.282;2022-11-20T02:55:24;2.90;99.90
18906;DHT22;9585;51.018;4.282;2022-11-20T02:57:53;3.00;99.90
18906;DHT22;9585;51.018;4.282;2022-11-20T03:00:20;2.90;99.90
18906;DHT22;9585;51.018;4.282;2022-11-20T03:02:47;2.90;99.90
18906;DHT22;9585;51.018;4.282;2022-11-20T03:05:14;2.90;99.90
18906;DHT22;9585;51.018;4.282;2022-11-20T03:07:43;2.90;99.90
18906;DHT22;9585;51.018;4.282;2022-11-20T03:10:11;2.90;99.90
18906;DHT22;9585;51.018;4.282;2022-11-20T03:12:38;2.90;99.90
18906;DHT22;9585;51.018;4.282;2022-11-20T03:15:08;2.90;99.90
18906;DHT22;9585;51.018;4.282;2022-11-20T03:17:35;3.00;99.90
18906;DHT22;9585;51.018;4.282;2022-11-20T03:20:03;2.90;99.90
18906;DHT22;9585;51.018;4.282;2022-11-20T03:22:31;2.90;99.90
18906;DHT22;9585;51.018;4.282;2022-11-20T03:24:58;2.90;99.90
18906;DHT22;9585;51.018;4.282;2022-11-20T03:27:25;2.90;99.90
18906;DHT22;9585;51.018;4.282;2022-11-20T03:29:53;2.90;99.90
18906;DHT22;9585;51.018;4.282;2022-11-20T03:32:21;2.90;99.90
18906;DHT22;9585;51.018;4.282;2022-11-20T03:34:49;2.90;99.90
18906;DHT22;9585;51.018;4.282;2022-11-20T03:37:16;2.90;99.90
18906;DHT22;9585;51.018;4.282;2022-11-20T03:39:43;2.80;99.90
18906;DHT22;9585;51.018;4.282;2022-11-20T03:42:10;2.80;99.90
18906;DHT22;9585;51.018;4.282;2022-11-20T03:44:57;2.80;99.90
18906;DHT22;9585;51.018;4.282;2022-11-20T03:47:26;2.90;99.90
18906;DHT22;9585;51.018;4.282;2022-11-20T03:49:53;2.90;99.90
18906;DHT22;9585;51.018;4.282;2022-11-20T03:52:20;2.90;99.90
18906;DHT22;9585;51.018;4.282;2022-11-20T03:54:48;2.90;99.90
18906;DHT22;9585;51.018;4.282;2022-11-20T03:57:15;2.90;99.90
18906;DHT22;9585;51.018;4.282;2022-11-20T03:59:42;3.00;99.90
18906;DHT22;9585;51.018;4.282;2022-11-20T04:02:09;2.90;99.90
18906;DHT22;9585;51.018;4.282;2022-11-20T04:04:38;2.90;99.90
18906;DHT22;9585;51.018;4.282;2022-11-20T04:07:05;2.90;99.90
18906;DHT22;9585;51.018;4.282;2022-11-20T04:09:32;2.90;99.90
18906;DHT22;9585;51.018;4.282;2022-11-20T04:11:59;2.90;99.90
18906;DHT22;9585;51.018;4.282;2022-11-20T04:14:26;2.90;99.90
18906;DHT22;9585;51.018;4.282;2022-11-20T04:16:54;2.90;99.90
18906;DHT22;9585;51.018;4.282;2022-11-20T04:19:21;2.80;99.90
18906;DHT22;9585;51.018;4.282;2022-11-20T04:21:50;2.80;99.90
18906;DHT22;9585;51.018;4.282;2022-11-20T04:24:17;2.80;99.90
18906;DHT22;9585;51.018;4.282;2022-11-20T04:26:44;2.70;99.90
18906;DHT22;9585;51.018;4.282;2022-11-20T04:29:12;2.70;99.90
18906;DHT22;9585;51.018;4.282;2022-11-20T04:31:39;2.70;99.90
18906;DHT22;9585;51.018;4.282;2022-11-20T04:34:07;2.70;99.90
18906;DHT22;9585;51.018;4.282;2022-11-20T04:36:34;2.70;99.90
18906;DHT22;9585;51.018;4.282;2022-11-20T04:39:05;2.70;99.90
18906;DHT22;9585;51.018;4.282;2022-11-20T04:41:34;2.70;99.90
18906;DHT22;9585;51.018;4.282;2022-11-20T04:44:03;2.70;99.90
18906;DHT22;9585;51.018;4.282;2022-11-20T04:46:34;2.80;99.90
18906;DHT22;9585;51.018;4.282;2022-11-20T04:49:02;2.80;99.90
18906;DHT22;9585;51.018;4.282;2022-11-20T04:51:30;2.80;99.90
18906;DHT22;9585;51.018;4.282;2022-11-20T04:53:57;2.80;99.90
18906;DHT22;9585;51.018;4.282;2022-11-20T04:56:26;2.80;99.90
18906;DHT22;9585;51.018;4.282;2022-11-20T04:58:54;2.90;99.90
18906;DHT22;9585;51.018;4.282;2022-11-20T05:01:23;2.90;99.90
18906;DHT22;9585;51.018;4.282;2022-11-20T05:03:51;2.90;99.90
18906;DHT22;9585;51.018;4.282;2022-11-20T05:06:20;2.90;99.90
18906;DHT22;9585;51.018;4.282;2022-11-20T05:08:47;3.00;99.90
18906;DHT22;9585;51.018;4.282;2022-11-20T05:11:16;3.00;99.90
18906;DHT22;9585;51.018;4.282;2022-11-20T05:13:45;3.00;99.90
18906;DHT22;9585;51.018;4.282;2022-11-20T05:16:14;3.00;99.90
18906;DHT22;9585;51.018;4.282;2022-11-20T05:18:42;3.00;99.90
18906;DHT22;9585;51.018;4.282;2022-11-20T05:21:10;3.10;99.90
18906;DHT22;9585;51.018;4.282;2022-11-20T05:23:37;3.10;99.90
18906;DHT22;9585;51.018;4.282;2022-11-20T05:26:13;3.10;99.90
18906;DHT22;9585;51.018;4.282;2022-11-20T05:28:40;3.10;99.90
18906;DHT22;9585;51.018;4.282;2022-11-20T05:31:11;3.10;99.90
18906;DHT22;9585;51.018;4.282;2022-11-20T05:33:40;3.00;99.90
18906;DHT22;9585;51.018;4.282;2022-11-20T05:36:09;3.00;99.90
18906;DHT22;9585;51.018;4.282;2022-11-20T05:38:37;2.90;99.90
18906;DHT22;9585;51.018;4.282;2022-11-20T05:41:06;2.70;99.90
18906;DHT22;9585;51.018;4.282;2022-11-20T05:43:34;2.50;99.90
18906;DHT22;9585;51.018;4.282;2022-11-20T05:46:02;2.50;99.90
18906;DHT22;9585;51.018;4.282;2022-11-20T05:48:33;2.50;99.90
18906;DHT22;9585;51.018;4.282;2022-11-20T05:51:01;2.60;99.90
18906;DHT22;9585;51.018;4.282;2022-11-20T05:53:29;2.70;99.90
18906;DHT22;9585;51.018;4.282;2022-11-20T05:55:57;2.80;99.90
18906;DHT22;9585;51.018;4.282;2022-11-20T05:58:25;2.90;99.90
18906;DHT22;9585;51.018;4.282;2022-11-20T06:00:52;3.00;99.90
18906;DHT22;9585;51.018;4.282;2022-11-20T06:03:19;2.90;99.90
18906;DHT22;9585;51.018;4.282;2022-11-20T06:05:48;2.90;99.90
18906;DHT22;9585;51.018;4.282;2022-11-20T06:08:15;2.90;99.90
18906;DHT22;9585;51.018;4.282;2022-11-20T06:10:43;2.90;99.90
18906;DHT22;9585;51.018;4.282;2022-11-20T06:13:10;2.80;99.90
18906;DHT22;9585;51.018;4.282;2022-11-20T06:15:37;2.80;99.90
18906;DHT22;9585;51.018;4.282;2022-11-20T06:18:04;2.80;99.90
18906;DHT22;9585;51.018;4.282;2022-11-20T06:20:32;2.90;99.90
18906;DHT22;9585;51.018;4.282;2022-11-20T06:23:00;2.90;99.90
18906;DHT22;9585;51.018;4.282;2022-11-20T06:25:27;3.00;99.90
18906;DHT22;9585;51.018;4.282;2022-11-20T06:27:55;3.00;99.90
18906;DHT22;9585;51.018;4.282;2022-11-20T06:30:22;3.00;99.90
18906;DHT22;9585;51.018;4.282;2022-11-20T06:32:49;3.10;99.90
18906;DHT22;9585;51.018;4.282;2022-11-20T06:35:16;3.10;99.90
18906;DHT22;9585;51.018;4.282;2022-11-20T06:37:43;3.20;99.90
18906;DHT22;9585;51.018;4.282;2022-11-20T06:40:13;3.20;99.90
18906;DHT22;9585;51.018;4.282;2022-11-20T06:42:40;3.20;99.90
18906;DHT22;9585;51.018;4.282;2022-11-20T06:45:08;3.30;99.90
18906;DHT22;9585;51.018;4.282;2022-11-20T06:47:36;3.30;99.90
18906;DHT22;9585;51.018;4.282;2022-11-20T06:50:03;3.30;99.90
18906;DHT22;9585;51.018;4.282;2022-11-20T06:52:31;3.30;99.90
18906;DHT22;9585;51.018;4.282;2022-11-20T06:54:58;3.40;99.90
18906;DHT22;9585;51.018;4.282;2022-11-20T06:57:27;3.40;99.90
18906;DHT22;9585;51.018;4.282;2022-11-20T06:59:54;3.40;99.90
18906;DHT22;9585;51.018;4.282;2022-11-20T07:02:21;3.40;99.90
18906;DHT22;9585;51.018;4.282;2022-11-20T07:04:49;3.50;99.90
18906;DHT22;9585;51.018;4.282;2022-11-20T07:07:16;3.50;99.90
18906;DHT22;9585;51.018;4.282;2022-11-20T07:09:43;3.50;99.90
18906;DHT22;9585;51.018;4.282;2022-11-20T07:12:10;3.50;99.90
18906;DHT22;9585;51.018;4.282;2022-11-20T07:14:39;3.60;99.90
18906;DHT22;9585;51.018;4.282;2022-11-20T07:17:06;3.60;99.90
18906;DHT22;9585;51.018;4.282;2022-11-20T07:19:33;3.60;99.90
18906;DHT22;9585;51.018;4.282;2022-11-20T07:22:01;3.60;99.90
18906;DHT22;9585;51.018;4.282;2022-11-20T07:24:28;3.60;99.90
18906;DHT22;9585;51.018;4.282;2022-11-20T07:26:55;3.70;99.90
18906;DHT22;9585;51.018;4.282;2022-11-20T07:29:23;3.70;99.90
18906;DHT22;9585;51.018;4.282;2022-11-20T07:31:52;3.60;99.90
18906;DHT22;9585;51.018;4.282;2022-11-20T07:34:21;3.70;99.90
18906;DHT22;9585;51.018;4.282;2022-11-20T07:36:48;3.70;99.90
18906;DHT22;9585;51.018;4.282;2022-11-20T07:39:16;3.70;99.90
18906;DHT22;9585;51.018;4.282;2022-11-20T07:41:43;3.80;99.90
18906;DHT22;9585;51.018;4.282;2022-11-20T07:44:10;3.90;99.90
18906;DHT22;9585;51.018;4.282;2022-11-20T07:46:38;3.90;99.90
18906;DHT22;9585;51.018;4.282;2022-11-20T07:49:06;4.00;99.90
18906;DHT22;9585;51.018;4.282;2022-11-20T07:51:34;4.00;99.90
18906;DHT22;9585;51.018;4.282;2022-11-20T07:54:01;3.90;99.90
18906;DHT22;9585;51.018;4.282;2022-11-20T07:56:28;3.90;99.90
18906;DHT22;9585;51.018;4.282;2022-11-20T07:58:56;3.90;99.90
18906;DHT22;9585;51.018;4.282;2022-11-20T08:01:23;3.90;99.90
18906;DHT22;9585;51.018;4.282;2022-11-20T08:03:50;3.90;99.90
18906;DHT22;9585;51.018;4.282;2022-11-20T08:06:19;4.00;99.90
18906;DHT22;9585;51.018;4.282;2022-11-20T08:08:46;4.00;99.90
18906;DHT22;9585;51.018;4.282;2022-11-20T08:11:13;4.10;99.90
18906;DHT22;9585;51.018;4.282;2022-11-20T08:13:58;4.20;99.90
18906;DHT22;9585;51.018;4.282;2022-11-20T08:16:42;4.20;99.90
18906;DHT22;9585;51.018;4.282;2022-11-20T08:19:10;4.10;99.90
18906;DHT22;9585;51.018;4.282;2022-11-20T08:21:39;3.90;99.90
18906;DHT22;9585;51.018;4.282;2022-11-20T08:24:07;3.80;99.90
18906;DHT22;9585;51.018;4.282;2022-11-20T08:26:36;3.70;99.90
18906;DHT22;9585;51.018;4.282;2022-11-20T08:29:04;3.80;99.90
18906;DHT22;9585;51.018;4.282;2022-11-20T08:31:32;3.90;99.90
18906;DHT22;9585;51.018;4.282;2022-11-20T08:33:59;3.90;99.90
18906;DHT22;9585;51.018;4.282;2022-11-20T08:36:26;3.90;99.90
18906;DHT22;9585;51.018;4.282;2022-11-20T08:38:55;4.00;99.90
18906;DHT22;9585;51.018;4.282;2022-11-20T08:41:23;4.00;99.90
18906;DHT22;9585;51.018;4.282;2022-11-20T08:43:52;4.00;99.90
18906;DHT22;9585;51.018;4.282;2022-11-20T08:46:20;4.00;99.90
18906;DHT22;9585;51.018;4.282;2022-11-20T08:48:47;4.00;99.90
18906;DHT22;9585;51.018;4.282;2022-11-20T08:51:14;4.10;99.90
18906;DHT22;9585;51.018;4.282;2022-11-20T08:53:42;4.30;99.90
18906;DHT22;9585;51.018;4.282;2022-11-20T08:56:11;4.30;99.90
18906;DHT22;9585;51.018;4.282;2022-11-20T08:58:39;4.50;99.90
18906;DHT22;9585;51.018;4.282;2022-11-20T09:01:09;4.50;99.90
18906;DHT22;9585;51.018;4.282;2022-11-20T09:03:36;4.60;99.90
18906;DHT22;9585;51.018;4.282;2022-11-20T09:06:05;4.70;99.90
18906;DHT22;9585;51.018;4.282;2022-11-20T09:08:33;4.70;99.90
18906;DHT22;9585;51.018;4.282;2022-11-20T09:11:01;4.70;99.90
18906;DHT22;9585;51.018;4.282;2022-11-20T09:13:32;4.80;99.90
18906;DHT22;9585;51.018;4.282;2022-11-20T09:16:01;4.80;99.90
18906;DHT22;9585;51.018;4.282;2022-11-20T09:18:29;4.90;99.90
18906;DHT22;9585;51.018;4.282;2022-11-20T09:20:58;4.90;99.90
18906;DHT22;9585;51.018;4.282;2022-11-20T09:23:25;5.00;99.90
18906;DHT22;9585;51.018;4.282;2022-11-20T09:25:53;5.10;99.90
18906;DHT22;9585;51.018;4.282;2022-11-20T09:28:25;5.20;99.90
18906;DHT22;9585;51.018;4.282;2022-11-20T09:30:54;5.30;99.90
18906;DHT22;9585;51.018;4.282;2022-11-20T09:33:21;5.30;99.90
18906;DHT22;9585;51.018;4.282;2022-11-20T09:35:48;5.40;99.90
18906;DHT22;9585;51.018;4.282;2022-11-20T09:38:16;5.50;99.90
18906;DHT22;9585;51.018;4.282;2022-11-20T09:40:50;5.50;99.90
18906;DHT22;9585;51.018;4.282;2022-11-20T09:43:26;5.50;99.90
18906;DHT22;9585;51.018;4.282;2022-11-20T09:46:03;5.60;99.90
18906;DHT22;9585;51.018;4.282;2022-11-20T09:48:45;5.70;99.90
18906;DHT22;9585;51.018;4.282;2022-11-20T09:51:25;5.70;99.90
18906;DHT22;9585;51.018;4.282;2022-11-20T09:54:08;5.80;99.90
18906;DHT22;9585;51.018;4.282;2022-11-20T09:56:41;5.90;99.90
18906;DHT22;9585;51.018;4.282;2022-11-20T09:59:26;5.90;99.90
18906;DHT22;9585;51.018;4.282;2022-11-20T10:01:57;5.80;99.90
18906;DHT22;9585;51.018;4.282;2022-11-20T10:04:26;5.80;99.90
18906;DHT22;9585;51.018;4.282;2022-11-20T10:07:02;5.70;99.90
18906;DHT22;9585;51.018;4.282;2022-11-20T10:09:34;5.70;99.90
18906;DHT22;9585;51.018;4.282;2022-11-20T10:12:12;5.80;99.90
18906;DHT22;9585;51.018;4.282;2022-11-20T10:14:51;5.90;99.90
18906;DHT22;9585;51.018;4.282;2022-11-20T10:17:33;6.10;99.90
18906;DHT22;9585;51.018;4.282;2022-11-20T10:20:16;6.10;99.90
18906;DHT22;9585;51.018;4.282;2022-11-20T10:22:54;6.10;99.90
18906;DHT22;9585;51.018;4.282;2022-11-20T10:25:33;6.20;99.90
18906;DHT22;9585;51.018;4.282;2022-11-20T10:28:28;6.40;99.90
18906;DHT22;9585;51.018;4.282;2022-11-20T10:31:02;6.60;99.90
18906;DHT22;9585;51.018;4.282;2022-11-20T10:33:34;6.60;99.90
18906;DHT22;9585;51.018;4.282;2022-11-20T10:36:09;6.70;99.90
18906;DHT22;9585;51.018;4.282;2022-11-20T10:38:43;6.70;99.90
18906;DHT22;9585;51.018;4.282;2022-11-20T10:41:19;6.90;99.90
18906;DHT22;9585;51.018;4.282;2022-11-20T10:44:00;7.00;99.90
18906;DHT22;9585;51.018;4.282;2022-11-20T10:46:35;7.10;99.90
18906;DHT22;9585;51.018;4.282;2022-11-20T10:49:12;7.10;99.90
18906;DHT22;9585;51.018;4.282;2022-11-20T10:51:51;7.30;99.90
18906;DHT22;9585;51.018;4.282;2022-11-20T10:54:25;7.50;99.90
18906;DHT22;9585;51.018;4.282;2022-11-20T10:56:59;7.50;99.90
18906;DHT22;9585;51.018;4.282;2022-11-20T10:59:42;7.70;99.90
18906;DHT22;9585;51.018;4.282;2022-11-20T11:02:18;7.60;99.90
18906;DHT22;9585;51.018;4.282;2022-11-20T11:04:49;7.70;99.90
18906;DHT22;9585;51.018;4.282;2022-11-20T11:07:20;7.70;99.90
18906;DHT22;9585;51.018;4.282;2022-11-20T11:09:50;7.80;99.90
18906;DHT22;9585;51.018;4.282;2022-11-20T11:12:20;7.80;99.90
18906;DHT22;9585;51.018;4.282;2022-11-20T11:14:49;7.80;99.90
18906;DHT22;9585;51.018;4.282;2022-11-20T11:17:30;8.00;99.90
18906;DHT22;9585;51.018;4.282;2022-11-20T11:20:16;8.10;99.90
18906;DHT22;9585;51.018;4.282;2022-11-20T11:22:45;8.10;99.90
18906;DHT22;9585;51.018;4.282;2022-11-20T11:25:21;8.20;99.90
18906;DHT22;9585;51.018;4.282;2022-11-20T11:27:50;8.30;99.90
18906;DHT22;9585;51.018;4.282;2022-11-20T11:30:19;8.40;99.90
18906;DHT22;9585;51.018;4.282;2022-11-20T11:32:46;8.50;99.90
18906;DHT22;9585;51.018;4.282;2022-11-20T11:35:26;8.70;99.90
18906;DHT22;9585;51.018;4.282;2022-11-20T11:38:02;8.70;99.90
18906;DHT22;9585;51.018;4.282;2022-11-20T11:40:31;8.80;99.90
18906;DHT22;9585;51.018;4.282;2022-11-20T11:43:01;8.90;99.90
18906;DHT22;9585;51.018;4.282;2022-11-20T11:45:28;8.80;99.90
18906;DHT22;9585;51.018;4.282;2022-11-20T11:47:57;8.80;99.90
18906;DHT22;9585;51.018;4.282;2022-11-20T11:50:27;8.70;99.90
18906;DHT22;9585;51.018;4.282;2022-11-20T11:53:04;8.70;99.90
18906;DHT22;9585;51.018;4.282;2022-11-20T11:55:37;8.60;99.90
18906;DHT22;9585;51.018;4.282;2022-11-20T11:58:11;8.70;99.90
18906;DHT22;9585;51.018;4.282;2022-11-20T12:00:49;8.70;99.90
18906;DHT22;9585;51.018;4.282;2022-11-20T12:03:21;8.70;99.90
18906;DHT22;9585;51.018;4.282;2022-11-20T12:05:57;8.50;99.90
18906;DHT22;9585;51.018;4.282;2022-11-20T12:08:31;8.40;99.90
18906;DHT22;9585;51.018;4.282;2022-11-20T12:11:05;8.30;99.90
18906;DHT22;9585;51.018;4.282;2022-11-20T12:13:52;8.40;99.90
18906;DHT22;9585;51.018;4.282;2022-11-20T12:16:21;8.30;99.90
18906;DHT22;9585;51.018;4.282;2022-11-20T12:18:52;8.10;99.90
18906;DHT22;9585;51.018;4.282;2022-11-20T12:21:28;8.00;99.90
18906;DHT22;9585;51.018;4.282;2022-11-20T12:24:21;8.00;99.90
18906;DHT22;9585;51.018;4.282;2022-11-20T12:27:01;8.00;99.90
18906;DHT22;9585;51.018;4.282;2022-11-20T12:29:40;7.90;99.90
18906;DHT22;9585;51.018;4.282;2022-11-20T12:35:30;7.80;99.90
18906;DHT22;9585;51.018;4.282;2022-11-20T12:38:11;7.70;99.90
18906;DHT22;9585;51.018;4.282;2022-11-20T12:40:45;7.70;99.90
18906;DHT22;9585;51.018;4.282;2022-11-20T12:43:21;7.60;99.90
18906;DHT22;9585;51.018;4.282;2022-11-20T12:46:20;7.60;99.90
18906;DHT22;9585;51.018;4.282;2022-11-20T12:49:02;7.60;99.90
18906;DHT22;9585;51.018;4.282;2022-11-20T12:51:48;7.60;99.90
18906;DHT22;9585;51.018;4.282;2022-11-20T12:54:42;7.50;99.90
18906;DHT22;9585;51.018;4.282;2022-11-20T12:57:18;7.50;99.90
18906;DHT22;9585;51.018;4.282;2022-11-20T13:00:02;7.40;99.90
18906;DHT22;9585;51.018;4.282;2022-11-20T13:02:39;7.50;99.90
18906;DHT22;9585;51.018;4.282;2022-11-20T13:05:18;7.50;99.90
18906;DHT22;9585;51.018;4.282;2022-11-20T13:07:47;7.50;99.90
18906;DHT22;9585;51.018;4.282;2022-11-20T13:10:25;7.60;99.90
18906;DHT22;9585;51.018;4.282;2022-11-20T13:12:58;7.70;99.90
18906;DHT22;9585;51.018;4.282;2022-11-20T13:15:36;7.70;99.90
18906;DHT22;9585;51.018;4.282;2022-11-20T13:18:10;7.60;99.90
18906;DHT22;9585;51.018;4.282;2022-11-20T13:20:42;7.50;99.90
18906;DHT22;9585;51.018;4.282;2022-11-20T13:23:10;7.50;99.90
18906;DHT22;9585;51.018;4.282;2022-11-20T13:25:40;7.50;99.90
18906;DHT22;9585;51.018;4.282;2022-11-20T13:28:28;7.50;99.90
18906;DHT22;9585;51.018;4.282;2022-11-20T13:30:57;7.50;99.90
18906;DHT22;9585;51.018;4.282;2022-11-20T13:33:29;7.40;99.90
18906;DHT22;9585;51.018;4.282;2022-11-20T13:35:59;7.50;99.90
18906;DHT22;9585;51.018;4.282;2022-11-20T13:38:26;7.50;99.90
18906;DHT22;9585;51.018;4.282;2022-11-20T13:40:57;7.40;99.90
18906;DHT22;9585;51.018;4.282;2022-11-20T13:43:34;7.30;99.90
18906;DHT22;9585;51.018;4.282;2022-11-20T13:46:03;7.30;99.90
18906;DHT22;9585;51.018;4.282;2022-11-20T13:48:33;7.20;99.90
18906;DHT22;9585;51.018;4.282;2022-11-20T13:51:25;7.20;99.90
18906;DHT22;9585;51.018;4.282;2022-11-20T13:54:14;7.20;99.90
18906;DHT22;9585;51.018;4.282;2022-11-20T13:56:56;7.30;99.90
18906;DHT22;9585;51.018;4.282;2022-11-20T13:59:40;7.30;99.90
18906;DHT22;9585;51.018;4.282;2022-11-20T14:02:12;7.30;99.90
18906;DHT22;9585;51.018;4.282;2022-11-20T14:04:44;7.30;99.90
18906;DHT22;9585;51.018;4.282;2022-11-20T14:07:13;7.40;99.90
18906;DHT22;9585;51.018;4.282;2022-11-20T14:09:51;7.50;99.90
18906;DHT22;9585;51.018;4.282;2022-11-20T14:12:22;7.50;99.90
18906;DHT22;9585;51.018;4.282;2022-11-20T14:14:51;7.40;99.90
18906;DHT22;9585;51.018;4.282;2022-11-20T14:17:20;7.40;99.90
18906;DHT22;9585;51.018;4.282;2022-11-20T14:19:49;7.50;99.90
18906;DHT22;9585;51.018;4.282;2022-11-20T14:22:20;7.40;99.90
18906;DHT22;9585;51.018;4.282;2022-11-20T14:24:48;7.40;99.90
18906;DHT22;9585;51.018;4.282;2022-11-20T14:27:17;7.40;99.90
18906;DHT22;9585;51.018;4.282;2022-11-20T14:29:48;7.30;99.90
18906;DHT22;9585;51.018;4.282;2022-11-20T14:32:17;7.20;99.90
18906;DHT22;9585;51.018;4.282;2022-11-20T14:34:48;7.20;99.90
18906;DHT22;9585;51.018;4.282;2022-11-20T14:37:20;7.30;99.90
18906;DHT22;9585;51.018;4.282;2022-11-20T14:39:51;7.30;99.90
18906;DHT22;9585;51.018;4.282;2022-11-20T14:42:21;7.30;99.90
18906;DHT22;9585;51.018;4.282;2022-11-20T14:44:51;7.30;99.90
18906;DHT22;9585;51.018;4.282;2022-11-20T14:47:21;7.30;99.90
18906;DHT22;9585;51.018;4.282;2022-11-20T14:49:50;7.20;99.90
18906;DHT22;9585;51.018;4.282;2022-11-20T14:52:21;7.30;99.90
18906;DHT22;9585;51.018;4.282;2022-11-20T14:54:49;7.40;99.90
18906;DHT22;9585;51.018;4.282;2022-11-20T14:57:23;7.30;99.90
18906;DHT22;9585;51.018;4.282;2022-11-20T15:00:07;7.30;99.90
18906;DHT22;9585;51.018;4.282;2022-11-20T15:02:38;7.50;99.90
18906;DHT22;9585;51.018;4.282;2022-11-20T15:05:06;7.40;99.90
18906;DHT22;9585;51.018;4.282;2022-11-20T15:07:35;7.40;99.90
18906;DHT22;9585;51.018;4.282;2022-11-20T15:10:05;7.40;99.90
18906;DHT22;9585;51.018;4.282;2022-11-20T15:12:34;7.50;99.90
18906;DHT22;9585;51.018;4.282;2022-11-20T15:15:05;7.50;99.90
18906;DHT22;9585;51.018;4.282;2022-11-20T15:17:36;7.50;99.90
18906;DHT22;9585;51.018;4.282;2022-11-20T15:20:10;7.50;99.90
18906;DHT22;9585;51.018;4.282;2022-11-20T15:22:38;7.60;99.90
18906;DHT22;9585;51.018;4.282;2022-11-20T15:25:12;7.60;99.90
18906;DHT22;9585;51.018;4.282;2022-11-20T15:27:39;7.60;99.90
18906;DHT22;9585;51.018;4.282;2022-11-20T15:30:13;7.50;99.90
18906;DHT22;9585;51.018;4.282;2022-11-20T15:32:41;7.60;99.90
18906;DHT22;9585;51.018;4.282;2022-11-20T15:35:09;7.50;99.90
18906;DHT22;9585;51.018;4.282;2022-11-20T15:37:36;7.60;99.90
18906;DHT22;9585;51.018;4.282;2022-11-20T15:40:06;7.60;99.90
18906;DHT22;9585;51.018;4.282;2022-11-20T15:42:34;7.70;99.90
18906;DHT22;9585;51.018;4.282;2022-11-20T15:45:02;7.70;99.90
18906;DHT22;9585;51.018;4.282;2022-11-20T15:47:33;7.70;99.90
18906;DHT22;9585;51.018;4.282;2022-11-20T15:50:01;7.60;99.90
18906;DHT22;9585;51.018;4.282;2022-11-20T15:52:28;7.60;99.90
18906;DHT22;9585;51.018;4.282;2022-11-20T15:54:56;7.60;99.90
18906;DHT22;9585;51.018;4.282;2022-11-20T15:57:23;7.60;99.90
18906;DHT22;9585;51.018;4.282;2022-11-20T15:59:51;7.50;99.90
18906;DHT22;9585;51.018;4.282;2022-11-20T16:02:18;7.50;99.90
18906;DHT22;9585;51.018;4.282;2022-11-20T16:04:47;7.50;99.90
18906;DHT22;9585;51.018;4.282;2022-11-20T16:07:14;7.50;99.90
18906;DHT22;9585;51.018;4.282;2022-11-20T16:09:41;7.40;99.90
18906;DHT22;9585;51.018;4.282;2022-11-20T16:12:09;7.40;99.90
18906;DHT22;9585;51.018;4.282;2022-11-20T16:14:59;7.40;99.90
18906;DHT22;9585;51.018;4.282;2022-11-20T16:17:43;7.30;99.90
18906;DHT22;9585;51.018;4.282;2022-11-20T16:20:12;7.30;99.90
18906;DHT22;9585;51.018;4.282;2022-11-20T16:22:47;7.30;99.90
18906;DHT22;9585;51.018;4.282;2022-11-20T16:25:15;7.20;99.90
18906;DHT22;9585;51.018;4.282;2022-11-20T16:27:45;7.30;99.90
18906;DHT22;9585;51.018;4.282;2022-11-20T16:30:13;7.30;99.90